Time;durP1;ratioP1;P1;durP2;ratioP2;P2;SDS_P1;SDS_P2;PMS_P1;PMS_P2;Temp;Humidity;BMP_temperature;BMP_pressure;BME280_temperature;BME280_humidity;BME280_pressure;Samples;Min_cycle;Max_cycle;Signal;HPM_P1;HPM_P2
2022/10/08 00:00:01;;;;;;;13.80;4.68;;;13.10;99.90;;;;;;5053039;28;20043;-62
2022/10/08 00:02:28;;;;;;;13.27;4.28;;;13.10;99.90;;;;;;5052760;28;20045;-63
2022/10/08 00:04:54;;;;;;;10.27;3.60;;;13.10;99.90;;;;;;5052896;28;20052;-64
2022/10/08 00:07:20;;;;;;;13.25;4.45;;;13.00;99.90;;;;;;5052089;28;20037;-63
2022/10/08 00:09:45;;;;;;;12.55;4.40;;;13.00;99.90;;;;;;5052062;28;20459;-63
2022/10/08 00:12:11;;;;;;;13.88;3.92;;;12.90;99.90;;;;;;5052336;28;20279;-63
2022/10/08 00:14:39;;;;;;;10.15;3.40;;;12.90;99.90;;;;;;5051242;28;20402;-64
2022/10/08 00:17:05;;;;;;;11.23;3.50;;;12.90;99.90;;;;;;5050996;28;20413;-63
2022/10/08 00:19:30;;;;;;;9.57;3.33;;;12.90;99.90;;;;;;5052294;28;20372;-64
2022/10/08 00:21:56;;;;;;;13.27;3.45;;;12.90;99.90;;;;;;5050486;28;20458;-65
2022/10/08 00:24:22;;;;;;;11.00;3.45;;;12.90;99.90;;;;;;5050660;28;20117;-65
2022/10/08 00:26:49;;;;;;;12.75;3.58;;;12.80;99.90;;;;;;5051041;28;20041;-66
2022/10/08 00:29:17;;;;;;;14.13;3.88;;;12.90;99.90;;;;;;5050849;28;20357;-65
2022/10/08 00:31:44;;;;;;;13.13;3.67;;;12.80;99.90;;;;;;5050148;28;20466;-65
2022/10/08 00:34:16;;;;;;;11.32;3.83;;;12.80;99.90;;;;;;5051322;28;20437;-65
2022/10/08 00:36:42;;;;;;;9.25;3.58;;;12.80;99.90;;;;;;5033616;28;20051;-65
2022/10/08 00:39:12;;;;;;;12.55;3.72;;;12.80;99.90;;;;;;5050707;28;20053;-66
2022/10/08 00:41:38;;;;;;;13.60;4.18;;;12.80;99.90;;;;;;5049863;28;20458;-66
2022/10/08 00:44:41;;;;;;;12.65;4.25;;;12.80;99.90;;;;;;5051354;28;20048;-65
2022/10/08 00:47:32;;;;;;;11.40;4.22;;;12.80;99.90;;;;;;5051411;28;20041;-66
2022/10/08 00:50:13;;;;;;;8.63;3.70;;;12.70;99.90;;;;;;5049831;28;20256;-66
2022/10/08 00:52:44;;;;;;;12.02;3.95;;;12.70;99.90;;;;;;5049894;28;20132;-66
2022/10/08 00:55:13;;;;;;;9.20;3.83;;;12.70;99.90;;;;;;5051603;28;20055;-66
2022/10/08 00:57:39;;;;;;;10.73;4.05;;;12.70;99.90;;;;;;5050437;28;20405;-67
2022/10/08 01:00:25;;;;;;;10.98;3.40;;;12.70;99.90;;;;;;5049977;28;20098;-65
2022/10/08 01:02:52;;;;;;;12.93;4.05;;;12.70;99.90;;;;;;5065723;28;20095;-66
2022/10/08 01:05:38;;;;;;;8.70;3.45;;;12.80;99.90;;;;;;5050148;28;20064;-67
2022/10/08 01:08:33;;;;;;;8.35;3.50;;;12.80;99.90;;;;;;5033740;28;20094;-66
2022/10/08 01:11:20;;;;;;;9.35;3.30;;;12.80;99.90;;;;;;5051481;28;20041;-66
2022/10/08 01:14:10;;;;;;;10.50;3.60;;;12.70;99.90;;;;;;5050329;28;20458;-66
2022/10/08 01:16:41;;;;;;;11.30;3.67;;;12.70;99.90;;;;;;5050105;28;20045;-65
2022/10/08 01:19:51;;;;;;;10.65;3.55;;;12.70;99.90;;;;;;5033388;28;20531;-66
2022/10/08 01:22:51;;;;;;;7.30;3.33;;;12.70;99.90;;;;;;5044400;28;20152;-66
2022/10/08 01:25:39;;;;;;;7.78;3.20;;;12.60;99.90;;;;;;5049241;28;20135;-66
2022/10/08 01:28:35;;;;;;;6.68;3.13;;;12.50;99.90;;;;;;5049740;28;20052;-66
2022/10/08 01:31:19;;;;;;;9.13;3.40;;;12.60;99.90;;;;;;5049403;28;20044;-66
2022/10/08 01:33:50;;;;;;;10.13;3.40;;;12.50;99.90;;;;;;5049263;28;20491;-66
2022/10/08 01:36:18;;;;;;;7.93;3.10;;;12.50;99.90;;;;;;5050068;28;20045;-65
2022/10/08 01:38:50;;;;;;;8.30;3.00;;;12.50;99.90;;;;;;5049329;28;20102;-66
2022/10/08 01:41:17;;;;;;;9.43;3.22;;;12.50;99.90;;;;;;5049353;28;20123;-66
2022/10/08 01:43:51;;;;;;;11.32;3.15;;;12.50;99.90;;;;;;5049702;28;20073;-65
2022/10/08 01:46:21;;;;;;;5.97;2.53;;;12.40;99.90;;;;;;5049792;28;20075;-66
2022/10/08 01:48:50;;;;;;;6.63;2.50;;;12.40;99.90;;;;;;5049306;28;20355;-65
2022/10/08 01:51:27;;;;;;;5.15;2.25;;;12.40;99.90;;;;;;5032617;28;20036;-65
2022/10/08 01:53:54;;;;;;;6.03;2.60;;;12.30;99.90;;;;;;5050197;28;20048;-65
2022/10/08 01:56:23;;;;;;;8.18;2.67;;;12.30;99.90;;;;;;5049625;28;20135;-66
2022/10/08 01:58:54;;;;;;;7.95;2.88;;;12.30;99.90;;;;;;5049975;28;20053;-66
2022/10/08 02:01:38;;;;;;;5.72;2.00;;;12.30;99.90;;;;;;5049147;28;20178;-66
2022/10/08 02:06:50;;;;;;;;;;;12.20;99.90;;;;;;5051801;28;20045;-65
2022/10/08 02:09:17;;;;;;;6.60;2.22;;;12.10;99.90;;;;;;5049976;28;19951;-65
2022/10/08 02:11:43;;;;;;;6.50;2.00;;;12.10;99.90;;;;;;5049098;28;20040;-65
2022/10/08 02:14:08;;;;;;;8.10;2.10;;;12.10;99.90;;;;;;5050256;28;20044;-65
2022/10/08 02:16:37;;;;;;;5.32;2.28;;;12.10;99.90;;;;;;5049476;28;20140;-65
2022/10/08 02:19:18;;;;;;;6.63;2.15;;;12.10;99.90;;;;;;5049452;28;20061;-65
2022/10/08 02:21:44;;;;;;;4.53;1.90;;;12.00;99.90;;;;;;5049330;28;20449;-66
2022/10/08 02:24:19;;;;;;;6.88;2.20;;;12.00;99.90;;;;;;5049164;28;20108;-65
2022/10/08 02:26:55;;;;;;;4.25;2.10;;;12.00;99.90;;;;;;5050502;28;20362;-65
2022/10/08 02:29:32;;;;;;;8.75;2.17;;;11.90;99.90;;;;;;5048972;28;20125;-65
2022/10/08 02:32:18;;;;;;;6.93;2.13;;;12.00;99.90;;;;;;5048602;28;20041;-65
2022/10/08 02:34:51;;;;;;;4.93;2.15;;;11.90;99.90;;;;;;5038164;28;20116;-65
2022/10/08 02:37:23;;;;;;;7.05;2.20;;;11.80;99.90;;;;;;5050261;28;20079;-65
2022/10/08 02:39:56;;;;;;;9.88;2.28;;;11.80;99.90;;;;;;5049073;28;20087;-65
2022/10/08 02:42:25;;;;;;;4.73;1.90;;;11.80;99.90;;;;;;5050395;28;20583;-65
2022/10/08 02:44:56;;;;;;;8.85;2.63;;;11.70;99.90;;;;;;5050432;28;20041;-65
2022/10/08 02:47:27;;;;;;;6.70;2.10;;;11.70;99.90;;;;;;5053417;28;20458;-65
2022/10/08 02:49:56;;;;;;;10.82;2.83;;;11.70;99.90;;;;;;5052313;28;20040;-65
2022/10/08 02:52:26;;;;;;;6.35;2.45;;;11.70;99.90;;;;;;5052427;28;20517;-65
2022/10/08 02:54:53;;;;;;;7.95;2.58;;;11.70;99.90;;;;;;5052671;28;20071;-65
2022/10/08 02:57:30;;;;;;;6.43;2.42;;;11.70;99.90;;;;;;5054196;28;20040;-65
2022/10/08 02:59:57;;;;;;;5.47;2.20;;;11.60;99.90;;;;;;5052903;28;20040;-65
2022/10/08 03:02:36;;;;;;;6.88;2.28;;;11.60;99.90;;;;;;5052266;28;20126;-65
2022/10/08 03:05:05;;;;;;;7.90;2.83;;;11.60;99.90;;;;;;5053856;28;20155;-65
2022/10/08 03:07:32;;;;;;;7.25;2.40;;;11.60;99.90;;;;;;5052800;28;20055;-65
2022/10/08 03:09:59;;;;;;;7.40;2.40;;;11.60;99.90;;;;;;5052568;28;20388;-65
2022/10/08 03:12:25;;;;;;;10.15;2.90;;;11.60;99.90;;;;;;5052998;28;20048;-65
2022/10/08 03:14:51;;;;;;;7.63;2.50;;;11.60;99.90;;;;;;5053845;28;20049;-65
2022/10/08 03:17:29;;;;;;;6.35;2.40;;;11.50;99.90;;;;;;5053485;28;20043;-65
2022/10/08 03:19:56;;;;;;;7.30;2.65;;;11.50;99.90;;;;;;5053592;28;20422;-65
2022/10/08 03:22:22;;;;;;;6.75;2.83;;;11.50;99.90;;;;;;5051930;28;20124;-66
2022/10/08 03:24:47;;;;;;;7.35;2.78;;;11.50;99.90;;;;;;5052226;28;20040;-67
2022/10/08 03:27:13;;;;;;;8.77;2.67;;;11.50;99.90;;;;;;5052284;28;20063;-66
2022/10/08 03:29:39;;;;;;;7.72;2.72;;;11.40;99.90;;;;;;5052602;28;20040;-66
2022/10/08 03:32:05;;;;;;;6.28;2.60;;;11.40;99.90;;;;;;5051878;28;20037;-66
2022/10/08 03:34:31;;;;;;;8.95;3.10;;;11.40;99.90;;;;;;5052148;28;20091;-66
2022/10/08 03:36:57;;;;;;;8.48;2.55;;;11.40;99.90;;;;;;5051854;28;20413;-65
2022/10/08 03:39:23;;;;;;;6.35;2.70;;;11.40;99.90;;;;;;5018703;28;20390;-65
2022/10/08 03:41:48;;;;;;;7.78;3.00;;;11.40;99.90;;;;;;5052811;28;20036;-66
2022/10/08 03:44:14;;;;;;;6.85;2.97;;;11.30;99.90;;;;;;5053339;28;20087;-66
2022/10/08 03:46:39;;;;;;;7.95;3.05;;;11.30;99.90;;;;;;5051947;28;20453;-65
2022/10/08 03:49:05;;;;;;;8.90;3.25;;;11.30;99.90;;;;;;5052876;28;20040;-66
2022/10/08 03:51:31;;;;;;;7.28;3.28;;;11.30;99.90;;;;;;5050985;28;20044;-66
2022/10/08 03:53:57;;;;;;;10.52;2.83;;;11.30;99.90;;;;;;5052642;28;20171;-65
2022/10/08 03:56:23;;;;;;;7.97;3.20;;;11.30;99.90;;;;;;5051758;28;20045;-66
2022/10/08 03:58:54;;;;;;;15.35;3.75;;;11.30;99.90;;;;;;5051108;28;20413;-65
2022/10/08 04:01:20;;;;;;;8.98;2.90;;;11.30;99.90;;;;;;5050638;28;20045;-65
2022/10/08 04:03:46;;;;;;;9.15;3.47;;;11.30;99.90;;;;;;5051716;28;20076;-65
2022/10/08 04:06:11;;;;;;;7.85;3.25;;;11.30;99.90;;;;;;5052131;28;20567;-66
2022/10/08 04:08:37;;;;;;;8.40;3.00;;;11.30;99.90;;;;;;5051584;28;20058;-65
2022/10/08 04:11:04;;;;;;;6.95;2.90;;;11.30;99.90;;;;;;5051234;28;20102;-66
2022/10/08 04:13:30;;;;;;;6.72;3.20;;;11.40;99.90;;;;;;5051513;28;20044;-67
2022/10/08 04:16:01;;;;;;;9.40;3.17;;;11.40;99.90;;;;;;5051825;28;20064;-65
2022/10/08 04:18:27;;;;;;;12.07;3.22;;;11.50;99.90;;;;;;5034292;28;20354;-66
2022/10/08 04:21:01;;;;;;;7.90;3.13;;;11.50;99.90;;;;;;5051368;28;20041;-66
2022/10/08 04:23:27;;;;;;;8.90;2.80;;;11.50;99.90;;;;;;5051273;28;20049;-66
2022/10/08 04:25:53;;;;;;;9.18;3.20;;;11.60;99.90;;;;;;5051085;28;20041;-66
2022/10/08 04:28:20;;;;;;;10.02;3.28;;;11.50;99.90;;;;;;5052200;28;20029;-65
2022/10/08 04:31:06;;;;;;;11.48;3.40;;;11.50;99.90;;;;;;5051018;28;20052;-65
2022/10/08 04:33:33;;;;;;;10.20;3.35;;;11.50;99.90;;;;;;5050866;28;20113;-66
2022/10/08 04:35:59;;;;;;;10.30;3.05;;;11.50;99.90;;;;;;5050901;28;20077;-66
2022/10/08 04:38:25;;;;;;;8.40;2.83;;;11.50;99.90;;;;;;5051957;28;20151;-65
2022/10/08 04:41:02;;;;;;;8.32;2.90;;;11.50;99.90;;;;;;5051500;28;20114;-66
2022/10/08 04:43:28;;;;;;;11.25;3.40;;;11.50;99.90;;;;;;5037666;28;20512;-66
2022/10/08 04:45:54;;;;;;;11.93;3.00;;;11.50;99.90;;;;;;5052165;28;20454;-66
2022/10/08 04:48:20;;;;;;;9.38;3.20;;;11.50;99.90;;;;;;5051086;28;20044;-66
2022/10/08 04:50:45;;;;;;;12.18;3.38;;;11.50;99.90;;;;;;5050596;28;20037;-64
2022/10/08 04:53:11;;;;;;;8.60;3.20;;;11.50;99.90;;;;;;5051438;28;20440;-65
2022/10/08 04:55:37;;;;;;;7.43;2.78;;;11.50;99.90;;;;;;5051810;28;20050;-65
2022/10/08 04:58:02;;;;;;;9.27;3.05;;;11.40;99.90;;;;;;5050460;28;20071;-65
2022/10/08 05:00:28;;;;;;;6.95;3.05;;;11.40;99.90;;;;;;5050464;28;20041;-65
2022/10/08 05:02:53;;;;;;;9.68;3.00;;;11.40;99.90;;;;;;5050231;28;20115;-66
2022/10/08 05:05:19;;;;;;;8.77;3.15;;;11.40;99.90;;;;;;5050091;28;20478;-65
2022/10/08 05:07:44;;;;;;;5.72;3.13;;;11.30;99.90;;;;;;5050465;28;20033;-65
2022/10/08 05:10:10;;;;;;;8.18;3.03;;;11.30;99.90;;;;;;5049491;28;20480;-66
2022/10/08 05:12:36;;;;;;;10.57;2.80;;;11.30;99.90;;;;;;5050569;28;20044;-66
2022/10/08 05:15:01;;;;;;;7.80;3.05;;;11.30;99.90;;;;;;5050388;28;20114;-66
2022/10/08 05:17:27;;;;;;;6.85;2.83;;;11.30;99.90;;;;;;5050299;28;20474;-65
2022/10/08 05:19:53;;;;;;;8.02;2.80;;;11.30;99.90;;;;;;5050417;28;20037;-65
2022/10/08 05:22:18;;;;;;;7.80;3.30;;;11.20;99.90;;;;;;5049421;28;20105;-65
2022/10/08 05:24:44;;;;;;;10.23;3.60;;;11.20;99.90;;;;;;5049933;28;20045;-65
2022/10/08 05:27:09;;;;;;;8.82;3.25;;;11.10;99.90;;;;;;5049995;28;20037;-65
2022/10/08 05:29:35;;;;;;;9.77;3.42;;;11.10;99.90;;;;;;5033813;28;20041;-66
2022/10/08 05:32:01;;;;;;;10.15;3.50;;;11.10;99.90;;;;;;5049531;28;20041;-65
2022/10/08 05:34:26;;;;;;;10.98;3.53;;;11.10;99.90;;;;;;5049882;28;20476;-65
2022/10/08 05:36:52;;;;;;;10.43;3.83;;;11.10;99.90;;;;;;5049806;28;20041;-65
2022/10/08 05:39:18;;;;;;;8.40;3.80;;;11.10;99.90;;;;;;5049331;28;20455;-65
2022/10/08 05:41:44;;;;;;;8.88;3.35;;;11.00;99.90;;;;;;5050636;28;20064;-65
2022/10/08 05:44:10;;;;;;;10.52;3.60;;;11.00;99.90;;;;;;5049788;28;20426;-65
2022/10/08 05:46:37;;;;;;;9.00;3.88;;;11.00;99.90;;;;;;5049613;28;20128;-66
2022/10/08 05:49:05;;;;;;;9.10;3.67;;;10.90;99.90;;;;;;5051152;28;20044;-65
2022/10/08 05:51:31;;;;;;;11.50;3.60;;;10.90;99.90;;;;;;5050269;28;20033;-65
2022/10/08 05:53:58;;;;;;;8.70;3.75;;;11.00;99.90;;;;;;5049764;28;20048;-65
2022/10/08 05:56:25;;;;;;;10.65;3.75;;;10.90;99.90;;;;;;5049993;28;20389;-65
2022/10/08 05:58:52;;;;;;;9.02;4.10;;;10.90;99.90;;;;;;5049478;28;20122;-65
2022/10/08 06:01:21;;;;;;;8.77;3.83;;;10.90;99.90;;;;;;5049971;28;20504;-65
2022/10/08 06:03:55;;;;;;;10.05;3.92;;;10.80;99.90;;;;;;5050061;28;20060;-65
2022/10/08 06:06:21;;;;;;;;;;;10.80;99.90;;;;;;5049429;28;20045;-65
2022/10/08 06:08:51;;;;;;;10.75;3.95;;;10.70;99.90;;;;;;5049018;28;20329;-65
2022/10/08 06:11:17;;;;;;;11.48;4.07;;;10.70;99.90;;;;;;5048710;28;20204;-64
2022/10/08 06:13:42;;;;;;;10.30;3.83;;;10.80;99.90;;;;;;5050459;28;20100;-65
2022/10/08 06:16:10;;;;;;;9.45;3.55;;;10.80;99.90;;;;;;5049751;28;20128;-66
2022/10/08 06:18:40;;;;;;;8.15;4.05;;;10.80;99.90;;;;;;5050359;28;20137;-66
2022/10/08 06:21:14;;;;;;;11.20;4.47;;;10.80;99.90;;;;;;5050054;28;20049;-66
2022/10/08 06:23:49;;;;;;;12.88;4.43;;;10.80;99.90;;;;;;5054007;28;20045;-65
2022/10/08 06:26:16;;;;;;;10.57;3.80;;;10.80;99.90;;;;;;5054264;28;20480;-66
2022/10/08 06:28:43;;;;;;;8.10;3.85;;;10.90;99.90;;;;;;5053459;28;20119;-66
2022/10/08 06:31:08;;;;;;;9.57;3.95;;;11.00;99.90;;;;;;5052631;28;20055;-65
2022/10/08 06:33:34;;;;;;;13.90;3.95;;;11.10;99.90;;;;;;5053413;28;20376;-65
2022/10/08 06:36:12;;;;;;;11.18;4.90;;;11.20;99.90;;;;;;5018617;28;20071;-65
2022/10/08 06:38:38;;;;;;;11.45;3.53;;;11.30;99.90;;;;;;5049509;28;20037;-65
2022/10/08 06:41:04;;;;;;;13.05;4.10;;;11.30;99.90;;;;;;5050840;28;20056;-65
2022/10/08 06:43:30;;;;;;;10.15;3.60;;;11.30;99.90;;;;;;5035432;28;20420;-65
2022/10/08 06:45:58;;;;;;;9.50;3.92;;;11.20;99.90;;;;;;5052292;28;20098;-65
2022/10/08 06:48:25;;;;;;;10.38;4.00;;;11.20;99.90;;;;;;5053562;28;20468;-66
2022/10/08 06:51:02;;;;;;;12.85;4.00;;;11.20;99.90;;;;;;5053300;28;20093;-65
2022/10/08 06:53:28;;;;;;;10.13;3.65;;;11.30;99.90;;;;;;5052549;28;20037;-66
2022/10/08 06:55:58;;;;;;;7.88;3.28;;;11.40;99.90;;;;;;5051868;28;20099;-65
2022/10/08 06:58:24;;;;;;;9.80;3.22;;;11.50;99.90;;;;;;5052426;28;20043;-66
2022/10/08 07:01:11;;;;;;;11.13;3.35;;;11.60;99.90;;;;;;5052377;28;20356;-66
2022/10/08 07:03:36;;;;;;;10.40;3.20;;;11.70;99.90;;;;;;5051062;28;20286;-66
2022/10/08 07:06:05;;;;;;;8.82;3.25;;;11.80;99.90;;;;;;5019578;28;20041;-65
2022/10/08 07:08:32;;;;;;;9.43;2.97;;;11.90;99.90;;;;;;5052946;28;20041;-65
2022/10/08 07:11:12;;;;;;;10.68;3.47;;;12.00;99.90;;;;;;5051379;28;20060;-66
2022/10/08 07:13:38;;;;;;;11.07;3.15;;;12.00;99.90;;;;;;5045921;28;20045;-66
2022/10/08 07:16:06;;;;;;;11.98;2.90;;;12.10;99.90;;;;;;5051778;28;20047;-65
2022/10/08 07:18:36;;;;;;;11.80;2.95;;;12.00;99.90;;;;;;5053344;28;20080;-65
2022/10/08 07:21:04;;;;;;;12.55;3.13;;;12.00;99.90;;;;;;5053100;28;20028;-65
2022/10/08 07:23:30;;;;;;;13.52;3.53;;;12.10;99.90;;;;;;5051837;28;20029;-66
2022/10/08 07:26:11;;;;;;;14.90;3.10;;;12.10;99.90;;;;;;5052473;28;20446;-73
2022/10/08 07:28:39;;;;;;;15.40;3.70;;;12.10;99.90;;;;;;5051416;28;20060;-65
2022/10/08 07:31:14;;;;;;;15.13;4.43;;;12.10;99.90;;;;;;5051941;28;20037;-65
2022/10/08 07:33:40;;;;;;;11.77;2.95;;;12.20;99.90;;;;;;5050806;28;20080;-66
2022/10/08 07:36:22;;;;;;;14.43;2.90;;;12.30;99.90;;;;;;5051045;28;20067;-66
2022/10/08 07:38:53;;;;;;;12.43;3.33;;;12.40;99.90;;;;;;5048434;28;20095;-71
2022/10/08 07:41:18;;;;;;;14.15;3.08;;;12.50;99.90;;;;;;5051009;28;20075;-65
2022/10/08 07:43:48;;;;;;;12.80;3.40;;;12.60;99.90;;;;;;5051282;28;20040;-65
2022/10/08 07:46:14;;;;;;;18.45;4.03;;;12.70;99.90;;;;;;5051290;28;20040;-64
2022/10/08 07:48:39;;;;;;;12.65;3.20;;;12.80;99.90;;;;;;5051490;28;20051;-65
2022/10/08 07:51:14;;;;;;;14.68;3.42;;;12.90;99.90;;;;;;5050660;28;20037;-64
2022/10/08 07:53:40;;;;;;;12.52;2.67;;;13.00;99.90;;;;;;5041787;28;20045;-66
2022/10/08 07:56:08;;;;;;;11.85;3.13;;;13.10;99.90;;;;;;5051394;28;20447;-66
2022/10/08 07:58:35;;;;;;;12.45;2.53;;;13.10;99.90;;;;;;5051130;28;20052;-64
2022/10/08 08:01:02;;;;;;;13.85;3.70;;;13.20;99.90;;;;;;5051007;28;20328;-65
2022/10/08 08:03:28;;;;;;;11.63;2.67;;;13.30;99.90;;;;;;5052342;28;20041;-65
2022/10/08 08:06:06;;;;;;;12.70;3.42;;;13.30;99.90;;;;;;5051407;28;20048;-64
2022/10/08 08:08:34;;;;;;;10.32;2.67;;;13.40;99.90;;;;;;5048289;28;20033;-64
2022/10/08 08:11:02;;;;;;;11.43;2.65;;;13.50;99.90;;;;;;5052065;28;20114;-65
2022/10/08 08:13:28;;;;;;;14.82;3.25;;;13.60;99.90;;;;;;5051010;28;20492;-65
2022/10/08 08:16:03;;;;;;;14.73;4.28;;;13.60;99.90;;;;;;5051492;28;20041;-64
2022/10/08 08:18:30;;;;;;;14.77;3.55;;;13.70;99.90;;;;;;5050989;28;20109;-66
2022/10/08 08:21:00;;;;;;;10.40;2.22;;;13.80;99.90;;;;;;5051803;28;20137;-65
2022/10/08 08:23:37;;;;;;;11.45;2.65;;;13.80;99.90;;;;;;5051497;28;20505;-64
2022/10/08 08:26:06;;;;;;;13.77;2.42;;;13.80;99.90;;;;;;5051869;28;20045;-64
2022/10/08 08:28:32;;;;;;;8.45;2.00;;;13.90;99.90;;;;;;5050949;28;20041;-66
2022/10/08 08:31:13;;;;;;;12.50;2.75;;;13.90;99.90;;;;;;5051045;28;20059;-63
2022/10/08 08:33:39;;;;;;;8.93;2.30;;;14.00;99.90;;;;;;5051047;28;20063;-64
2022/10/08 08:36:05;;;;;;;9.63;1.85;;;14.10;99.90;;;;;;5052027;28;20033;-65
2022/10/08 08:38:35;;;;;;;8.98;2.00;;;14.10;99.90;;;;;;5052028;28;20025;-64
2022/10/08 08:41:20;;;;;;;9.02;2.15;;;14.20;99.90;;;;;;5050839;28;20052;-64
2022/10/08 08:43:47;;;;;;;7.32;2.00;;;14.20;99.90;;;;;;5040299;28;20040;-65
2022/10/08 08:46:18;;;;;;;7.60;2.13;;;14.30;99.90;;;;;;5051035;28;20470;-64
2022/10/08 08:48:45;;;;;;;10.48;2.17;;;14.50;99.90;;;;;;5051135;28;20401;-63
2022/10/08 08:51:11;;;;;;;9.15;1.90;;;14.40;99.90;;;;;;5050576;28;20033;-64
2022/10/08 08:53:37;;;;;;;6.82;1.58;;;14.50;99.90;;;;;;5051847;28;20048;-64
2022/10/08 08:56:06;;;;;;;10.02;1.92;;;14.50;99.90;;;;;;5051925;28;20095;-64
2022/10/08 08:58:39;;;;;;;9.45;1.77;;;14.50;99.90;;;;;;5050385;28;20480;-64
2022/10/08 09:01:07;;;;;;;7.40;1.95;;;14.40;99.90;;;;;;5050602;28;20120;-64
2022/10/08 09:03:34;;;;;;;7.20;1.90;;;14.50;99.90;;;;;;5049034;28;20075;-64
2022/10/08 09:06:08;;;;;;;7.28;1.70;;;14.50;99.90;;;;;;5051365;28;20048;-64
2022/10/08 09:08:52;;;;;;;;;;;14.60;99.90;;;;;;5051590;28;20037;-67
2022/10/08 09:11:20;;;;;;;8.38;1.70;;;14.60;99.90;;;;;;5050958;28;20316;-64
2022/10/08 09:14:13;;;;;;;12.50;1.80;;;14.60;99.90;;;;;;5049930;28;20045;-64
2022/10/08 09:16:39;;;;;;;8.63;1.90;;;14.60;99.90;;;;;;5049908;28;20051;-64
2022/10/08 09:19:05;;;;;;;7.60;1.92;;;14.70;99.90;;;;;;5051250;28;20067;-64
2022/10/08 09:21:33;;;;;;;8.40;2.13;;;14.90;99.90;;;;;;5049483;28;20037;-64
2022/10/08 09:23:59;;;;;;;9.20;2.05;;;14.80;99.90;;;;;;5048905;28;20493;-65
2022/10/08 09:26:32;;;;;;;8.95;2.08;;;15.00;99.90;;;;;;5050500;28;20040;-65
2022/10/08 09:29:00;;;;;;;6.57;1.63;;;15.10;99.90;;;;;;5050720;28;20320;-64
2022/10/08 09:31:37;;;;;;;8.82;1.83;;;15.10;99.90;;;;;;5050257;28;20290;-65
2022/10/08 09:34:15;;;;;;;9.70;2.42;;;15.20;99.90;;;;;;5049781;28;20048;-64
2022/10/08 09:36:50;;;;;;;9.45;2.00;;;15.30;99.90;;;;;;5050379;28;20528;-64
2022/10/08 09:39:24;;;;;;;8.13;1.80;;;15.40;99.90;;;;;;5050149;28;20369;-64
2022/10/08 09:42:05;;;;;;;8.50;2.15;;;15.20;99.90;;;;;;5048986;28;20037;-65
2022/10/08 09:44:50;;;;;;;7.63;1.98;;;15.20;99.90;;;;;;5049110;28;20049;-64
2022/10/08 09:47:21;;;;;;;7.38;2.00;;;15.30;99.90;;;;;;5049604;28;20521;-64
2022/10/08 09:50:04;;;;;;;10.40;2.10;;;15.30;99.90;;;;;;5050505;28;20068;-64
2022/10/08 09:52:30;;;;;;;6.90;1.90;;;15.30;99.90;;;;;;5047370;28;20139;-64
2022/10/08 09:54:57;;;;;;;8.50;1.85;;;15.40;99.90;;;;;;5048639;28;20140;-65
2022/10/08 09:57:23;;;;;;;9.18;2.13;;;15.40;99.90;;;;;;5051289;28;20048;-64
2022/10/08 09:59:57;;;;;;;7.22;1.90;;;15.40;99.90;;;;;;5053565;28;20354;-64
2022/10/08 10:02:27;;;;;;;7.20;1.73;;;15.40;99.90;;;;;;5053509;28;20029;-65
2022/10/08 10:04:54;;;;;;;10.38;2.15;;;15.50;99.90;;;;;;5053342;28;20381;-64
2022/10/08 10:07:20;;;;;;;9.48;2.28;;;15.50;99.90;;;;;;5052761;28;20048;-65
2022/10/08 10:09:51;;;;;;;9.50;2.00;;;15.70;99.90;;;;;;5054125;28;20048;-64
2022/10/08 10:12:37;;;;;;;7.78;2.10;;;15.70;99.90;;;;;;5051310;28;20147;-65
2022/10/08 10:15:18;;;;;;;12.13;2.28;;;15.60;99.90;;;;;;5046095;28;20457;-64
2022/10/08 10:17:47;;;;;;;9.00;2.30;;;15.30;99.90;;;;;;5053223;28;20123;-65
2022/10/08 10:20:21;;;;;;;9.32;2.08;;;15.00;99.90;;;;;;5053163;28;20037;-64
2022/10/08 10:22:51;;;;;;;8.07;1.75;;;14.70;99.90;;;;;;5053206;28;20041;-65
2022/10/08 10:25:42;;;;;;;9.65;2.15;;;14.60;99.90;;;;;;5051328;28;20060;-65
2022/10/08 10:28:32;;;;;;;10.73;2.15;;;14.60;99.90;;;;;;5042110;28;20128;-64
2022/10/08 10:31:04;;;;;;;10.00;2.05;;;14.50;99.90;;;;;;5053008;28;20349;-65
2022/10/08 10:33:42;;;;;;;8.90;2.10;;;14.60;99.90;;;;;;5053415;28;20099;-64
2022/10/08 10:36:13;;;;;;;10.05;2.30;;;14.60;99.90;;;;;;5040217;28;20036;-64
2022/10/08 10:38:49;;;;;;;7.50;2.22;;;14.50;99.90;;;;;;5054136;28;20029;-63
2022/10/08 10:41:42;;;;;;;9.27;2.17;;;14.40;99.90;;;;;;5053742;28;20417;-63
2022/10/08 10:44:14;;;;;;;8.05;2.20;;;14.30;99.90;;;;;;5046149;28;20049;-63
2022/10/08 10:46:52;;;;;;;10.95;2.50;;;14.10;99.90;;;;;;5053972;28;20048;-63
2022/10/08 10:49:25;;;;;;;7.93;2.15;;;14.10;99.90;;;;;;5054249;28;20037;-64
2022/10/08 10:52:19;;;;;;;8.90;2.13;;;14.00;99.90;;;;;;5053207;28;20343;-63
2022/10/08 10:55:04;;;;;;;10.77;1.90;;;14.00;99.90;;;;;;5053891;28;20378;-63
2022/10/08 10:57:49;;;;;;;;;;;14.00;99.90;;;;;;5050879;28;20343;-64
2022/10/08 11:00:25;;;;;;;8.88;1.60;;;14.10;99.90;;;;;;5052638;28;19973;-64
2022/10/08 11:02:58;;;;;;;6.65;1.77;;;14.20;99.90;;;;;;5051051;28;20059;-64
2022/10/08 11:05:31;;;;;;;7.03;1.75;;;14.30;99.90;;;;;;5053479;28;20041;-63
2022/10/08 11:08:09;;;;;;;8.60;1.77;;;14.50;99.90;;;;;;5053615;28;20041;-64
2022/10/08 11:11:12;;;;;;;6.57;1.55;;;14.80;99.90;;;;;;5053003;28;20138;-64
2022/10/08 11:13:52;;;;;;;7.43;1.77;;;15.00;99.90;;;;;;5053088;28;20095;-64
2022/10/08 11:16:25;;;;;;;7.80;1.70;;;15.10;99.90;;;;;;5051259;28;20159;-64
2022/10/08 11:19:00;;;;;;;8.95;1.90;;;15.10;99.90;;;;;;5052967;28;20037;-64
2022/10/08 11:21:34;;;;;;;6.97;1.60;;;15.10;99.90;;;;;;5051521;28;20129;-65
2022/10/08 11:24:09;;;;;;;9.13;2.22;;;15.00;99.90;;;;;;5052926;28;20105;-64
2022/10/08 11:27:13;;;;;;;6.80;1.58;;;15.00;99.90;;;;;;5052724;28;20041;-64
2022/10/08 11:30:01;;;;;;;7.00;1.70;;;15.10;99.90;;;;;;5051615;28;20625;-65
2022/10/08 11:32:28;;;;;;;6.90;1.48;;;15.20;99.90;;;;;;5049913;28;20033;-66
2022/10/08 11:35:00;;;;;;;9.07;1.83;;;15.30;99.90;;;;;;5052141;28;20129;-64
2022/10/08 11:37:47;;;;;;;6.47;1.58;;;15.30;99.90;;;;;;5052187;28;20470;-64
2022/10/08 11:40:25;;;;;;;5.90;1.42;;;15.30;99.90;;;;;;5051868;28;20057;-64
2022/10/08 11:43:08;;;;;;;8.68;1.45;;;15.40;99.90;;;;;;5052564;28;20128;-64
2022/10/08 11:45:36;;;;;;;7.15;1.75;;;15.40;99.90;;;;;;5053050;28;20064;-65
2022/10/08 11:48:33;;;;;;;4.75;1.50;;;15.60;99.90;;;;;;5052533;28;20365;-64
2022/10/08 11:51:17;;;;;;;8.98;1.67;;;15.60;99.90;;;;;;5051396;28;20041;-64
2022/10/08 11:53:59;;;;;;;9.05;1.75;;;15.50;99.90;;;;;;5052879;28;20445;-64
2022/10/08 11:56:24;;;;;;;7.15;1.50;;;15.60;99.90;;;;;;5052289;28;20041;-64
2022/10/08 11:58:52;;;;;;;9.02;1.73;;;15.80;99.90;;;;;;5052558;28;20088;-65
2022/10/08 12:01:19;;;;;;;6.53;1.50;;;15.80;99.90;;;;;;5051217;28;20072;-65
2022/10/08 12:04:00;;;;;;;7.37;2.03;;;15.90;99.90;;;;;;5052633;28;20036;-65
2022/10/08 12:06:31;;;;;;;6.63;1.95;;;15.90;99.90;;;;;;5053008;28;20253;-64
2022/10/08 12:09:05;;;;;;;10.90;2.15;;;16.00;99.90;;;;;;5052121;28;20126;-65
2022/10/08 12:11:31;;;;;;;8.38;1.65;;;16.10;99.90;;;;;;5050513;28;20085;-65
2022/10/08 12:14:15;;;;;;;6.50;1.70;;;15.90;99.90;;;;;;5052550;28;20044;-66
2022/10/08 12:16:47;;;;;;;7.45;1.50;;;15.90;99.90;;;;;;5052538;28;20080;-63
2022/10/08 12:19:31;;;;;;;6.50;1.77;;;15.90;99.90;;;;;;5051771;28;20047;-65
2022/10/08 12:21:58;;;;;;;;;;;15.90;99.90;;;;;;5050322;28;20481;-65
2022/10/08 12:24:38;;;;;;;5.57;1.75;;;16.00;99.90;;;;;;5052147;28;19936;-66
2022/10/08 12:27:16;;;;;;;9.02;1.55;;;16.10;99.90;;;;;;5052341;28;20041;-65
2022/10/08 12:30:15;;;;;;;5.53;1.70;;;16.20;99.90;;;;;;5051811;28;20470;-65
2022/10/08 12:32:41;;;;;;;9.10;1.95;;;16.10;99.90;;;;;;5039601;28;20047;-66
2022/10/08 12:35:39;;;;;;;6.13;1.60;;;16.10;99.90;;;;;;5052148;28;20048;-65
2022/10/08 12:38:28;;;;;;;8.35;1.98;;;16.00;99.90;;;;;;5047547;28;20114;-65
2022/10/08 12:41:31;;;;;;;9.35;2.47;;;16.00;99.90;;;;;;5050329;28;20563;-66
2022/10/08 12:44:22;;;;;;;7.03;1.50;;;16.00;99.90;;;;;;5041496;28;20071;-64
2022/10/08 12:46:56;;;;;;;5.53;1.35;;;16.00;99.90;;;;;;5050733;28;20370;-64
2022/10/08 12:49:57;;;;;;;7.60;1.83;;;15.80;99.90;;;;;;5051839;28;20049;-64
2022/10/08 12:52:23;;;;;;;9.43;1.70;;;15.90;99.90;;;;;;5051167;28;20438;-64
2022/10/08 12:54:51;;;;;;;7.30;1.90;;;15.90;99.90;;;;;;5051581;28;20120;-64
2022/10/08 12:57:29;;;;;;;6.57;1.83;;;15.80;99.90;;;;;;5051885;28;20118;-63
2022/10/08 12:59:56;;;;;;;9.07;2.03;;;15.80;99.90;;;;;;5051404;28;20095;-64
2022/10/08 13:02:42;;;;;;;7.97;1.67;;;15.70;99.90;;;;;;5051281;28;20037;-64
2022/10/08 13:05:35;;;;;;;9.40;1.90;;;15.60;99.90;;;;;;5051079;28;20462;-64
2022/10/08 13:08:24;;;;;;;7.40;1.50;;;15.50;99.90;;;;;;5050787;28;20091;-65
2022/10/08 13:10:50;;;;;;;7.00;1.90;;;15.50;99.90;;;;;;5051235;28;20120;-65
2022/10/08 13:13:30;;;;;;;7.20;1.90;;;15.50;99.90;;;;;;5050998;28;20128;-65